Potomac, Maryland
Current Conditions -  °F | °C
As of 1:55 PM on Friday 31 Oct 2014 (Local Time) from KGAI Reporting Station
Overcast Overcast  
Wind Chill: 52°   Ceiling: 4500
Heat Index: 52°   Visibility: 10mi
Dew Point: 36°   Wind: 3mph
Humidity: 54%   Direction: 90°E
Pressure: 29.94"   Gusts: NA
Location:  39.02°N, 77.21°W
Report Text: KGAI 311755Z 09003KT 10SM SCT039 BKN045 OVC050 11/02 A2994 RMK AO1 10120 20070 57024
Loading
Personal Weather Stations






























Interactive Weather Map
Tropical Storm Tracking
New forecast layout! Learn more

10-Day Weather Forecast

Advertisements
Track Severe Weather on mobile